Time;durP1;ratioP1;P1;durP2;ratioP2;P2;SDS_P1;SDS_P2;PMS_P1;PMS_P2;Temp;Humidity;BMP_temperature;BMP_pressure;BME280_temperature;BME280_humidity;BME280_pressure;Samples;Min_cycle;Max_cycle;Signal;HPM_P1;HPM_P2
2023/05/18 00:01:57;;;;;;;5.50;2.70;;;;;;;18.17;43.31;100517.17;108168;1287;21988;-59
2023/05/18 00:04:24;;;;;;;5.60;2.20;;;;;;;18.14;43.48;100516.41;108138;1287;21978;-58
2023/05/18 00:06:55;;;;;;;6.40;2.30;;;;;;;18.14;43.66;100515.34;108129;1287;22003;-59
2023/05/18 00:09:25;;;;;;;8.50;2.40;;;;;;;18.16;43.84;100512.78;108114;1287;21990;-58
2023/05/18 00:11:51;;;;;;;6.20;2.30;;;;;;;18.16;43.93;100509.05;108148;1287;22040;-58
2023/05/18 00:14:17;;;;;;;5.10;2.50;;;;;;;18.16;44.06;100505.66;108141;1287;23812;-58
2023/05/18 00:16:43;;;;;;;6.70;2.30;;;;;;;18.17;44.05;100503.70;108098;1287;22027;-58
2023/05/18 00:19:09;;;;;;;8.00;2.40;;;;;;;18.18;44.26;100504.52;108148;1287;22101;-60
2023/05/18 00:21:35;;;;;;;4.60;2.20;;;;;;;18.18;44.32;100505.41;108143;1287;21987;-58
2023/05/18 00:24:00;;;;;;;5.20;2.20;;;;;;;18.17;44.33;100504.03;108137;1287;21995;-58
2023/05/18 00:26:26;;;;;;;6.90;2.30;;;;;;;18.17;44.44;100505.42;108127;1287;21995;-59
2023/05/18 00:28:52;;;;;;;5.20;2.20;;;;;;;18.17;44.44;100506.52;108090;1287;22000;-58
2023/05/18 00:31:17;;;;;;;4.60;2.10;;;;;;;18.16;44.47;100502.13;108060;1287;21992;-59
2023/05/18 00:33:46;;;;;;;6.90;2.80;;;;;;;18.15;44.53;100503.40;108140;1287;22008;-57
2023/05/18 00:36:12;;;;;;;7.80;2.80;;;;;;;18.13;44.60;100505.60;108148;1287;22150;-57
2023/05/18 00:38:37;;;;;;;4.10;2.00;;;;;;;18.13;44.53;100502.96;108236;1287;22008;-58
2023/05/18 00:41:03;;;;;;;4.50;2.10;;;;;;;18.11;44.50;100499.30;108176;1286;21986;-58
2023/05/18 00:43:29;;;;;;;4.10;2.30;;;;;;;18.10;44.45;100501.48;108106;1287;21995;-58
2023/05/18 00:45:55;;;;;;;6.30;2.30;;;;;;;18.07;44.59;100500.38;108196;1287;21987;-58
2023/05/18 00:48:20;;;;;;;4.00;2.30;;;;;;;18.03;44.53;100499.98;108116;1287;21996;-58
2023/05/18 00:50:46;;;;;;;4.60;2.30;;;;;;;17.98;44.47;100496.95;108082;1287;21995;-58
2023/05/18 00:53:12;;;;;;;6.00;2.20;;;;;;;17.94;44.53;100492.70;108151;1287;21987;-59
2023/05/18 00:55:38;;;;;;;5.40;2.30;;;;;;;17.90;44.61;100495.68;107912;1287;21996;-58
2023/05/18 00:58:04;;;;;;;3.50;2.10;;;;;;;17.89;44.61;100497.36;108096;1287;21985;-59
2023/05/18 01:00:30;;;;;;;5.20;2.20;;;;;;;17.85;44.72;100496.45;107945;1287;22012;-59
2023/05/18 01:02:56;;;;;;;4.10;1.90;;;;;;;17.83;44.83;100496.70;108134;1287;22003;-57
2023/05/18 01:05:22;;;;;;;4.30;2.10;;;;;;;17.79;44.91;100499.49;108135;1283;22162;-57
2023/05/18 01:07:49;;;;;;;6.90;2.90;;;;;;;17.75;44.91;100496.83;108080;1288;21992;-58
2023/05/18 01:10:16;;;;;;;6.50;3.10;;;;;;;17.72;44.99;100498.73;107769;1288;21992;-57
2023/05/18 01:12:48;;;;;;;4.50;2.00;;;;;;;17.67;45.08;100498.20;106624;1288;1002887;-58
2023/05/18 01:15:19;;;;;;;5.80;2.00;;;;;;;17.64;45.18;100498.88;108105;1287;21985;-58
2023/05/18 01:18:04;;;;;;;3.70;1.90;;;;;;;17.62;45.29;100499.84;108236;1287;21981;-58
2023/05/18 01:20:48;;;;;;;4.40;1.90;;;;;;;17.63;45.37;100505.48;108120;1287;21980;-57
2023/05/18 01:23:44;;;;;;;7.90;2.30;;;;;;;17.63;45.41;100504.43;107941;1287;21996;-57
2023/05/18 01:26:36;;;;;;;4.60;2.20;;;;;;;17.62;45.43;100503.23;108103;1287;21998;-57
2023/05/18 01:29:05;;;;;;;5.20;2.60;;;;;;;17.60;45.40;100503.65;107920;1288;21989;-57
2023/05/18 01:31:31;;;;;;;5.50;2.20;;;;;;;17.59;45.58;100502.98;108158;1287;21990;-57
2023/05/18 01:33:57;;;;;;;4.90;2.90;;;;;;;17.57;45.70;100502.34;108148;1287;21991;-58
2023/05/18 01:36:22;;;;;;;5.90;2.50;;;;;;;17.57;45.73;100503.25;108246;1287;21995;-57
2023/05/18 01:38:48;;;;;;;4.70;1.90;;;;;;;17.58;45.81;100504.45;107857;1288;22105;-57
2023/05/18 01:41:22;;;;;;;9.10;2.30;;;;;;;17.60;45.88;100506.48;108163;1287;21989;-59
2023/05/18 01:43:52;;;;;;;4.50;2.40;;;;;;;17.63;45.93;100506.20;108095;1287;22024;-58
2023/05/18 01:46:24;;;;;;;6.60;2.50;;;;;;;17.65;45.98;100507.52;108080;1287;21989;-58
2023/05/18 01:48:54;;;;;;;5.80;2.40;;;;;;;17.70;46.05;100509.80;108143;1287;21993;-58
2023/05/18 01:51:20;;;;;;;5.40;2.30;;;;;;;17.74;45.99;100516.04;107960;1287;22025;-57
2023/05/18 01:53:52;;;;;;;6.20;2.40;;;;;;;17.76;46.04;100519.67;107819;1288;21990;-58
2023/05/18 01:56:19;;;;;;;5.80;2.20;;;;;;;17.80;46.12;100523.98;108066;1288;22135;-57
2023/05/18 01:58:45;;;;;;;4.70;2.10;;;;;;;17.82;46.15;100524.23;107871;1287;21988;-58
2023/05/18 02:01:11;;;;;;;6.40;2.60;;;;;;;17.83;46.22;100524.55;107840;1288;22049;-57
2023/05/18 02:03:36;;;;;;;4.50;2.90;;;;;;;17.86;46.08;100525.70;107816;1287;21992;-57
2023/05/18 02:06:02;;;;;;;5.50;2.40;;;;;;;17.87;46.10;100523.54;107348;1287;1003088;-60
2023/05/18 02:08:28;;;;;;;6.20;2.60;;;;;;;17.85;46.01;100523.06;108189;1287;22001;-58
2023/05/18 02:10:54;;;;;;;6.90;2.90;;;;;;;17.84;46.01;100520.96;108073;1287;22003;-60
2023/05/18 02:13:19;;;;;;;6.40;2.40;;;;;;;17.84;46.02;100524.89;108090;1288;21989;-58
2023/05/18 02:15:45;;;;;;;4.10;2.00;;;;;;;17.83;46.08;100523.69;108120;1287;22765;-60
2023/05/18 02:18:11;;;;;;;4.90;2.30;;;;;;;17.83;46.05;100524.39;107312;1287;1002052;-58
2023/05/18 02:20:37;;;;;;;5.20;2.40;;;;;;;17.83;46.12;100524.56;108080;1288;21999;-59
2023/05/18 02:23:02;;;;;;;5.80;2.10;;;;;;;17.82;46.18;100523.35;108075;1287;22468;-57
2023/05/18 02:25:28;;;;;;;8.40;3.10;;;;;;;17.78;46.21;100516.41;107364;1287;1003001;-58
2023/05/18 02:27:54;;;;;;;5.20;2.20;;;;;;;17.73;46.20;100517.14;108073;1287;21993;-57
2023/05/18 02:30:20;;;;;;;5.00;2.60;;;;;;;17.67;46.23;100514.54;108095;1287;22404;-59
2023/05/18 02:32:47;;;;;;;5.10;2.50;;;;;;;17.63;46.32;100514.89;108100;1287;21992;-57
2023/05/18 02:35:13;;;;;;;5.70;2.30;;;;;;;17.61;46.34;100516.22;108132;1287;21997;-59
2023/05/18 02:37:41;;;;;;;12.40;2.70;;;;;;;17.59;46.40;100520.35;107934;1288;21997;-59
2023/05/18 02:40:11;;;;;;;5.00;2.20;;;;;;;17.58;46.39;100523.60;108107;1287;21991;-58
2023/05/18 02:42:37;;;;;;;6.00;2.70;;;;;;;17.58;46.49;100523.77;108158;1287;21986;-57
2023/05/18 02:45:03;;;;;;;6.70;2.90;;;;;;;17.57;46.59;100526.30;108045;1284;21993;-57
2023/05/18 02:47:29;;;;;;;7.80;2.70;;;;;;;17.57;46.56;100524.33;108100;1287;21998;-58
2023/05/18 02:49:55;;;;;;;6.20;2.70;;;;;;;17.58;46.66;100526.95;108053;1287;22155;-58
2023/05/18 02:52:21;;;;;;;5.50;2.80;;;;;;;17.60;46.82;100527.06;108043;1287;21989;-58
2023/05/18 02:54:46;;;;;;;13.20;2.60;;;;;;;17.62;46.89;100528.94;108067;1287;21990;-57
2023/05/18 02:57:12;;;;;;;14.10;3.40;;;;;;;17.66;46.92;100529.13;108053;1284;21995;-56
2023/05/18 02:59:38;;;;;;;12.10;3.50;;;;;;;17.72;47.06;100526.77;108081;1287;21992;-57
2023/05/18 03:02:04;;;;;;;7.20;2.60;;;;;;;17.79;47.17;100531.30;108067;1287;21988;-58
2023/05/18 03:04:30;;;;;;;6.90;2.80;;;;;;;17.84;47.11;100530.37;108050;1287;23754;-57
2023/05/18 03:06:57;;;;;;;8.70;2.70;;;;;;;17.88;47.25;100528.98;108151;1287;21994;-57
2023/05/18 03:09:23;;;;;;;6.60;3.00;;;;;;;17.90;47.18;100527.81;108084;1287;22009;-57
2023/05/18 03:11:50;;;;;;;6.50;2.60;;;;;;;17.94;47.38;100532.09;108035;1287;21993;-57
2023/05/18 03:14:16;;;;;;;6.20;2.50;;;;;;;17.99;47.37;100529.42;108090;1287;21990;-57
2023/05/18 03:16:41;;;;;;;6.10;2.50;;;;;;;18.07;47.38;100534.13;108122;1287;21989;-59
2023/05/18 03:19:07;;;;;;;8.00;2.90;;;;;;;18.14;47.36;100533.64;108071;1287;23640;-56
2023/05/18 03:21:34;;;;;;;6.00;2.70;;;;;;;18.20;47.49;100537.30;108053;1287;23644;-57
2023/05/18 03:24:01;;;;;;;6.10;3.00;;;;;;;18.24;47.65;100539.45;108069;1287;21996;-57
2023/05/18 03:26:29;;;;;;;8.60;3.00;;;;;;;18.28;47.84;100538.77;108112;1287;22080;-58
2023/05/18 03:28:56;;;;;;;13.10;2.90;;;;;;;18.33;47.76;100537.30;108128;1287;21993;-56
2023/05/18 03:31:22;;;;;;;9.80;3.20;;;;;;;18.41;47.78;100537.30;108056;1287;22212;-57
2023/05/18 03:33:47;;;;;;;23.90;3.60;;;;;;;18.51;47.96;100534.94;108057;1287;22029;-56
2023/05/18 03:36:15;;;;;;;8.70;3.30;;;;;;;18.60;47.82;100530.98;108078;1287;21993;-57
2023/05/18 03:38:44;;;;;;;11.00;3.50;;;;;;;18.67;47.92;100530.85;108042;1287;22025;-57
2023/05/18 03:41:10;;;;;;;7.20;3.30;;;;;;;18.71;47.80;100534.23;108087;1287;21997;-58
2023/05/18 03:43:36;;;;;;;8.00;2.40;;;;;;;18.76;47.75;100536.33;108066;1287;24019;-56
2023/05/18 03:46:02;;;;;;;12.10;3.20;;;;;;;18.82;47.76;100537.14;108032;1287;21986;-56
2023/05/18 03:48:28;;;;;;;6.40;2.60;;;;;;;18.88;47.72;100540.79;108050;1287;21988;-56
2023/05/18 03:50:54;;;;;;;5.50;2.70;;;;;;;18.96;47.79;100540.11;108038;1287;21990;-60
2023/05/18 03:53:20;;;;;;;4.80;2.70;;;;;;;19.05;47.89;100540.42;108156;1287;21952;-58
2023/05/18 03:55:48;;;;;;;6.40;2.60;;;;;;;19.15;48.03;100538.38;108006;1286;22025;-58
2023/05/18 03:58:15;;;;;;;5.60;3.10;;;;;;;19.25;47.85;100540.07;108112;1287;23097;-58
2023/05/18 04:00:41;;;;;;;6.10;2.80;;;;;;;19.36;47.77;100539.73;108121;1283;21998;-59
2023/05/18 04:03:11;;;;;;;6.40;2.80;;;;;;;19.47;47.88;100542.77;108049;1287;21980;-58
2023/05/18 04:05:38;;;;;;;17.00;3.40;;;;;;;19.59;48.05;100539.57;108137;1288;21998;-57
2023/05/18 04:08:06;;;;;;;7.10;2.60;;;;;;;19.72;47.81;100539.33;108123;1287;23790;-59
2023/05/18 04:10:32;;;;;;;6.10;2.50;;;;;;;19.84;47.73;100537.13;108162;1287;21995;-59
2023/05/18 04:12:57;;;;;;;5.40;2.70;;;;;;;19.97;47.64;100538.51;108153;1287;21995;-58
2023/05/18 04:15:23;;;;;;;5.70;2.80;;;;;;;20.09;47.60;100543.44;108096;1281;22057;-57
2023/05/18 04:17:50;;;;;;;6.90;2.90;;;;;;;20.19;47.42;100546.64;108093;1287;22000;-58
2023/05/18 04:20:16;;;;;;;6.60;2.80;;;;;;;20.27;47.60;100546.98;108136;1287;21992;-57
2023/05/18 04:22:45;;;;;;;7.80;3.00;;;;;;;20.37;47.59;100547.91;108208;1287;21993;-57
2023/05/18 04:25:14;;;;;;;7.70;2.50;;;;;;;20.49;47.47;100553.53;108115;1287;21995;-59
2023/05/18 04:27:40;;;;;;;4.90;2.50;;;;;;;20.60;47.16;100551.55;108130;1287;21995;-59
2023/05/18 04:30:09;;;;;;;5.00;2.50;;;;;;;20.72;47.12;100558.81;108112;1287;21991;-57
2023/05/18 04:32:35;;;;;;;8.10;3.00;;;;;;;20.84;47.05;100563.39;108185;1287;23132;-57
2023/05/18 04:35:05;;;;;;;8.20;3.20;;;;;;;20.97;46.93;100564.99;108103;1287;22029;-57
2023/05/18 04:37:34;;;;;;;6.70;3.20;;;;;;;21.11;46.84;100566.77;108159;1287;21992;-59
2023/05/18 04:40:06;;;;;;;7.50;3.20;;;;;;;21.23;46.69;100567.18;108125;1287;22043;-59
2023/05/18 04:42:33;;;;;;;11.60;3.10;;;;;;;21.38;46.73;100567.12;108139;1287;23060;-57
2023/05/18 04:44:59;;;;;;;7.50;3.20;;;;;;;21.53;46.52;100567.90;108126;1287;22102;-57
2023/05/18 04:47:24;;;;;;;5.20;2.70;;;;;;;21.67;46.44;100566.95;108099;1287;21994;-58
2023/05/18 04:49:53;;;;;;;8.60;3.10;;;;;;;21.81;46.03;100563.16;108118;1288;21990;-57
2023/05/18 04:52:19;;;;;;;7.60;3.60;;;;;;;21.93;45.93;100563.40;108107;1288;21993;-58
2023/05/18 04:54:45;;;;;;;7.40;3.40;;;;;;;22.07;45.73;100562.95;108063;1287;21993;-59
2023/05/18 04:57:11;;;;;;;10.20;3.10;;;;;;;22.21;45.60;100563.25;108075;1287;21992;-58
2023/05/18 04:59:38;;;;;;;6.60;3.10;;;;;;;22.35;45.57;100562.20;108162;1287;21995;-56
2023/05/18 05:02:04;;;;;;;6.10;2.90;;;;;;;22.51;45.37;100562.92;108138;1287;21990;-56
2023/05/18 05:04:30;;;;;;;5.40;3.30;;;;;;;22.68;45.22;100563.55;108162;1287;22003;-57
2023/05/18 05:06:56;;;;;;;7.10;3.00;;;;;;;22.85;45.31;100560.01;108127;1289;21990;-57
2023/05/18 05:09:21;;;;;;;7.60;3.00;;;;;;;23.08;45.23;100560.75;108092;1289;21980;-57
2023/05/18 05:11:47;;;;;;;7.60;3.20;;;;;;;23.28;44.80;100556.14;108065;1287;21990;-56
2023/05/18 05:14:13;;;;;;;6.90;2.90;;;;;;;23.43;44.41;100553.94;108084;1287;21998;-56
2023/05/18 05:16:38;;;;;;;13.30;3.80;;;;;;;23.60;44.15;100551.45;108115;1288;22026;-57
2023/05/18 05:19:04;;;;;;;5.80;3.10;;;;;;;23.77;43.81;100547.48;108085;1288;22025;-56
2023/05/18 05:21:30;;;;;;;5.40;3.00;;;;;;;23.96;43.87;100547.71;108203;1287;22020;-58
2023/05/18 05:23:56;;;;;;;6.40;3.40;;;;;;;24.17;43.58;100551.57;108135;1287;22004;-57
2023/05/18 05:26:22;;;;;;;6.80;3.20;;;;;;;24.34;42.89;100552.76;108164;1287;21994;-58
2023/05/18 05:28:48;;;;;;;5.40;2.80;;;;;;;24.46;42.65;100552.80;108107;1287;22030;-56
2023/05/18 05:31:13;;;;;;;6.00;2.90;;;;;;;24.62;42.52;100551.55;108066;1287;22043;-56
2023/05/18 05:33:39;;;;;;;5.20;3.10;;;;;;;24.80;42.20;100554.47;108058;1287;21993;-57
2023/05/18 05:36:07;;;;;;;4.80;2.80;;;;;;;24.96;41.85;100552.80;108080;1288;21999;-58
2023/05/18 05:38:34;;;;;;;6.10;2.60;;;;;;;25.13;41.58;100551.86;108133;1289;21995;-58
2023/05/18 05:41:00;;;;;;;5.70;3.00;;;;;;;25.32;41.14;100552.45;108110;1287;21990;-56
2023/05/18 05:43:26;;;;;;;6.30;2.80;;;;;;;25.48;41.05;100550.46;108109;1287;22027;-57
2023/05/18 05:45:53;;;;;;;6.10;2.70;;;;;;;25.65;40.75;100548.71;108116;1287;21994;-57
2023/05/18 05:48:19;;;;;;;5.50;3.30;;;;;;;25.78;40.49;100549.73;108205;1287;21995;-57
2023/05/18 05:50:45;;;;;;;5.90;3.20;;;;;;;25.89;40.43;100548.95;108177;1287;21995;-57
2023/05/18 05:53:10;;;;;;;12.80;3.10;;;;;;;26.01;40.38;100550.16;108076;1288;21992;-57
2023/05/18 05:55:42;;;;;;;5.00;2.70;;;;;;;26.18;40.08;100553.67;108072;1287;21990;-60
2023/05/18 05:58:08;;;;;;;4.40;2.60;;;;;;;26.34;39.66;100554.39;108131;1287;22457;-58
2023/05/18 06:00:34;;;;;;;4.90;2.30;;;;;;;26.46;39.26;100557.63;108065;1288;22006;-58
2023/05/18 06:03:00;;;;;;;8.10;3.10;;;;;;;26.62;39.31;100561.42;108119;1289;21962;-58
2023/05/18 06:05:25;;;;;;;7.80;2.60;;;;;;;26.78;39.00;100561.49;108134;1287;21991;-56
2023/05/18 06:07:54;;;;;;;3.60;2.50;;;;;;;26.89;38.83;100561.61;108124;1287;21987;-57
2023/05/18 06:10:20;;;;;;;4.70;2.80;;;;;;;27.07;39.33;100558.90;108129;1287;21997;-58
2023/05/18 06:12:46;;;;;;;6.30;2.40;;;;;;;27.30;39.13;100555.98;108187;1287;22159;-58
2023/05/18 06:15:12;;;;;;;6.60;2.50;;;;;;;27.48;38.94;100554.23;108129;1287;21987;-57
2023/05/18 06:17:38;;;;;;;4.80;2.30;;;;;;;27.62;38.83;100551.28;108089;1287;21990;-58
2023/05/18 06:20:06;;;;;;;6.50;2.50;;;;;;;27.87;38.75;100548.95;108167;1287;21991;-57
2023/05/18 06:22:32;;;;;;;6.90;2.70;;;;;;;28.15;38.39;100546.11;108117;1287;22109;-57
2023/05/18 06:24:58;;;;;;;4.40;2.40;;;;;;;28.40;37.98;100540.59;108065;1287;21995;-57
2023/05/18 06:27:23;;;;;;;8.10;2.60;;;;;;;28.58;37.74;100535.05;108074;1287;22012;-59
2023/05/18 06:29:49;;;;;;;7.30;3.00;;;;;;;28.75;37.61;100533.11;108117;1287;23726;-57
2023/05/18 06:32:15;;;;;;;6.00;2.60;;;;;;;28.93;37.28;100535.14;108099;1287;21989;-58
2023/05/18 06:34:41;;;;;;;10.40;2.80;;;;;;;29.12;36.99;100532.40;108136;1287;21991;-57
2023/05/18 06:37:07;;;;;;;6.90;2.40;;;;;;;29.35;37.20;100533.27;108156;1287;21992;-58
2023/05/18 06:39:33;;;;;;;6.10;2.90;;;;;;;29.57;36.81;100531.52;108140;1287;21995;-57
2023/05/18 06:41:59;;;;;;;6.40;2.30;;;;;;;29.71;36.44;100530.60;108083;1288;21992;-58
2023/05/18 06:44:25;;;;;;;7.40;2.60;;;;;;;29.88;36.09;100527.27;108122;1287;22022;-58
2023/05/18 06:46:51;;;;;;;7.10;2.70;;;;;;;30.09;35.72;100529.20;108096;1287;21995;-59
2023/05/18 06:49:16;;;;;;;6.30;2.60;;;;;;;30.28;35.65;100530.12;108079;1287;22049;-58
2023/05/18 06:51:42;;;;;;;6.60;2.60;;;;;;;30.46;35.28;100525.41;108073;1287;22002;-58
2023/05/18 06:54:08;;;;;;;5.60;2.60;;;;;;;30.59;35.00;100527.62;108085;1287;22002;-58
2023/05/18 06:56:34;;;;;;;6.20;2.90;;;;;;;30.74;34.87;100526.81;108184;1287;21962;-59
2023/05/18 06:59:00;;;;;;;8.70;2.90;;;;;;;30.89;34.77;100522.42;108093;1288;22027;-58
2023/05/18 07:01:25;;;;;;;6.50;2.80;;;;;;;31.05;34.62;100523.98;108151;1287;22048;-58
2023/05/18 07:03:51;;;;;;;6.00;2.90;;;;;;;31.17;34.55;100525.19;108090;1287;21982;-59
2023/05/18 07:06:17;;;;;;;5.00;2.20;;;;;;;31.33;34.37;100522.20;108119;1287;23465;-61
2023/05/18 07:08:43;;;;;;;4.10;2.70;;;;;;;31.53;34.37;100515.42;108134;1287;22465;-58
2023/05/18 07:11:09;;;;;;;10.80;2.90;;;;;;;31.73;34.13;100515.91;108120;1287;22024;-60
2023/05/18 07:13:35;;;;;;;5.40;2.90;;;;;;;31.91;33.85;100513.81;108118;1287;22003;-59
2023/05/18 07:16:01;;;;;;;4.50;2.70;;;;;;;32.03;33.51;100511.37;108066;1287;21992;-59
2023/05/18 07:18:27;;;;;;;5.30;2.60;;;;;;;32.15;33.30;100512.47;108129;1287;21986;-59
2023/05/18 07:20:53;;;;;;;5.20;3.30;;;;;;;32.28;33.00;100509.92;108084;1287;21984;-59
2023/05/18 07:23:18;;;;;;;5.20;3.00;;;;;;;32.42;33.07;100508.11;108146;1287;22000;-58
2023/05/18 07:25:44;;;;;;;7.50;3.20;;;;;;;32.56;32.78;100507.70;108112;1287;21998;-58
2023/05/18 07:28:10;;;;;;;8.50;4.00;;;;;;;32.68;32.60;100515.35;108094;1281;21989;-59
2023/05/18 07:30:36;;;;;;;5.90;3.30;;;;;;;32.80;32.54;100515.08;108013;1287;22270;-59
2023/05/18 07:33:01;;;;;;;5.30;2.90;;;;;;;32.95;32.47;100516.23;108122;1287;22060;-59
2023/05/18 07:35:27;;;;;;;8.00;3.50;;;;;;;33.10;32.29;100521.61;108146;1287;21997;-59
2023/05/18 07:37:53;;;;;;;4.70;2.80;;;;;;;33.24;31.74;100520.73;108061;1286;21998;-60
2023/05/18 07:40:19;;;;;;;8.10;3.40;;;;;;;33.40;31.66;100522.26;108054;1287;22002;-59
2023/05/18 07:42:45;;;;;;;4.60;3.20;;;;;;;33.56;31.57;100520.75;108033;1287;21999;-60
2023/05/18 07:45:12;;;;;;;12.50;4.00;;;;;;;33.70;31.37;100519.27;108101;1287;21989;-59
2023/05/18 07:47:38;;;;;;;6.80;3.20;;;;;;;33.81;30.91;100516.95;108004;1287;21981;-61
2023/05/18 07:50:05;;;;;;;5.10;3.30;;;;;;;33.91;30.68;100517.38;108076;1287;21994;-59
2023/05/18 07:52:31;;;;;;;6.50;3.40;;;;;;;34.03;30.44;100510.11;108184;1287;21992;-59
2023/05/18 07:54:56;;;;;;;9.40;3.50;;;;;;;34.11;30.05;100508.65;108051;1287;21991;-59
2023/05/18 07:57:23;;;;;;;8.40;3.20;;;;;;;34.18;29.92;100508.63;108037;1287;22005;-60
2023/05/18 07:59:48;;;;;;;9.20;4.10;;;;;;;34.20;29.76;100506.88;108341;1287;22028;-60
2023/05/18 08:02:16;;;;;;;5.70;3.50;;;;;;;34.29;29.52;100507.92;108052;1287;21996;-61
2023/05/18 08:04:41;;;;;;;7.10;3.70;;;;;;;34.40;29.70;100515.27;108120;1287;22457;-60
2023/05/18 08:07:07;;;;;;;5.10;3.50;;;;;;;34.51;29.42;100517.33;108104;1287;22027;-60
2023/05/18 08:09:33;;;;;;;5.70;3.90;;;;;;;34.61;29.13;100517.17;108149;1287;22047;-60
2023/05/18 08:11:59;;;;;;;11.00;4.30;;;;;;;34.68;28.87;100515.59;107954;1287;22030;-61
2023/05/18 08:14:25;;;;;;;10.80;4.30;;;;;;;34.76;28.61;100515.84;108060;1287;21992;-61
2023/05/18 08:16:51;;;;;;;5.90;3.90;;;;;;;34.86;28.59;100516.91;108229;1287;22165;-62
2023/05/18 08:19:16;;;;;;;7.50;4.20;;;;;;;34.97;28.41;100516.79;108066;1287;23041;-60
2023/05/18 08:21:42;;;;;;;6.10;4.10;;;;;;;35.07;28.60;100518.16;108075;1287;22003;-59
2023/05/18 08:24:08;;;;;;;7.50;4.20;;;;;;;35.23;28.38;100516.14;108139;1287;22015;-60
2023/05/18 08:26:34;;;;;;;7.00;4.80;;;;;;;35.41;28.07;100515.08;108049;1287;21993;-61
2023/05/18 08:29:00;;;;;;;5.60;3.40;;;;;;;35.51;27.96;100516.33;108071;1287;21995;-60
2023/05/18 08:31:26;;;;;;;9.90;4.00;;;;;;;35.60;27.80;100516.54;108075;1287;21992;-60
2023/05/18 08:33:52;;;;;;;7.70;4.30;;;;;;;35.72;27.68;100517.31;108127;1287;22261;-61
2023/05/18 08:36:17;;;;;;;5.90;4.40;;;;;;;35.85;27.44;100516.46;108069;1287;21989;-58
2023/05/18 08:38:43;;;;;;;11.10;4.70;;;;;;;35.96;27.29;100513.21;108038;1287;22002;-58
2023/05/18 08:41:47;;;;;;;9.30;5.30;;;;;;;36.04;27.12;100516.80;108090;1287;21982;-59
2023/05/18 08:44:20;;;;;;;9.00;5.90;;;;;;;36.15;26.82;100517.67;108139;1287;23653;-60
2023/05/18 08:46:49;;;;;;;7.80;5.40;;;;;;;36.22;26.65;100517.44;108139;1287;21979;-59
2023/05/18 08:49:19;;;;;;;7.70;4.80;;;;;;;36.29;26.76;100512.20;108112;1287;21994;-60
2023/05/18 08:51:47;;;;;;;6.80;4.60;;;;;;;36.38;26.80;100512.05;108191;1287;22155;-60
2023/05/18 08:54:20;;;;;;;10.60;5.10;;;;;;;36.50;26.60;100507.23;108017;1287;173843;-59
2023/05/18 08:56:46;;;;;;;6.30;4.80;;;;;;;36.59;26.39;100508.79;108153;1287;21996;-61
2023/05/18 08:59:12;;;;;;;7.50;5.20;;;;;;;36.69;26.16;100506.55;108137;1287;23815;-61
2023/05/18 09:01:37;;;;;;;6.20;5.10;;;;;;;36.74;26.01;100505.50;107780;1287;21993;-60
2023/05/18 09:04:03;;;;;;;8.00;5.10;;;;;;;36.81;26.13;100503.84;108060;1289;22031;-58
2023/05/18 09:06:29;;;;;;;12.60;6.00;;;;;;;36.94;25.97;100500.61;107714;1288;22024;-60
2023/05/18 09:08:57;;;;;;;7.20;5.20;;;;;;;37.04;25.61;100497.48;107826;1288;22461;-59
2023/05/18 09:11:24;;;;;;;7.40;5.40;;;;;;;37.04;25.32;100494.56;107949;1287;21996;-60
2023/05/18 09:13:50;;;;;;;7.80;5.30;;;;;;;37.07;25.60;100494.84;108090;1284;21985;-59
2023/05/18 09:16:16;;;;;;;9.10;5.70;;;;;;;37.16;25.34;100493.44;108139;1287;21997;-58
2023/05/18 09:18:42;;;;;;;15.10;5.70;;;;;;;37.26;25.44;100492.98;108154;1287;21999;-61
2023/05/18 09:21:08;;;;;;;8.10;5.60;;;;;;;37.39;25.33;100486.42;108114;1287;21989;-61
2023/05/18 09:23:38;;;;;;;11.10;5.80;;;;;;;37.56;25.14;100493.68;108142;1283;21987;-59
2023/05/18 09:26:03;;;;;;;9.30;6.10;;;;;;;37.69;25.17;100490.77;108103;1287;21999;-59
2023/05/18 09:28:35;;;;;;;11.70;5.90;;;;;;;37.78;25.27;100488.33;108052;1287;22000;-60
2023/05/18 09:31:11;;;;;;;12.20;5.50;;;;;;;37.90;25.17;100491.77;108174;1287;22028;-60
2023/05/18 09:33:38;;;;;;;7.90;5.20;;;;;;;38.06;24.96;100487.98;108117;1283;23611;-60
2023/05/18 09:36:05;;;;;;;8.50;5.30;;;;;;;38.19;24.91;100480.65;108113;1287;22033;-59
2023/05/18 09:38:44;;;;;;;8.10;5.60;;;;;;;38.36;24.85;100483.58;108088;1287;21986;-59
2023/05/18 09:41:19;;;;;;;7.60;5.40;;;;;;;38.58;24.93;100486.38;108065;1287;21985;-60
2023/05/18 09:43:52;;;;;;;8.50;5.40;;;;;;;38.80;24.80;100483.41;108050;1287;21986;-59
2023/05/18 09:46:19;;;;;;;8.20;5.70;;;;;;;38.95;24.81;100479.24;108180;1287;23042;-61
2023/05/18 09:48:46;;;;;;;15.90;5.90;;;;;;;39.10;24.48;100476.34;108132;1287;21989;-60
2023/05/18 09:51:15;;;;;;;15.50;6.30;;;;;;;39.22;24.25;100473.05;107917;1287;21990;-61
2023/05/18 09:53:41;;;;;;;11.30;6.00;;;;;;;39.30;23.95;100473.38;108119;1287;22010;-61
2023/05/18 09:56:10;;;;;;;8.80;5.80;;;;;;;39.32;23.80;100473.80;108135;1287;24104;-58
2023/05/18 09:58:38;;;;;;;12.40;6.00;;;;;;;39.32;23.68;100474.59;108100;1287;21992;-59
2023/05/18 10:01:04;;;;;;;8.90;6.00;;;;;;;39.36;23.91;100468.30;108138;1287;22158;-59
2023/05/18 10:03:37;;;;;;;6.90;5.60;;;;;;;39.48;23.85;100467.27;108049;1287;21986;-59
2023/05/18 10:06:08;;;;;;;10.50;6.70;;;;;;;39.62;23.69;100463.77;108060;1287;21992;-59
2023/05/18 10:08:34;;;;;;;16.00;5.90;;;;;;;39.72;23.32;100460.70;108089;1287;21959;-59
2023/05/18 10:11:00;;;;;;;7.30;5.40;;;;;;;39.78;23.25;100457.71;108094;1287;22029;-60
2023/05/18 10:13:27;;;;;;;12.30;6.30;;;;;;;39.79;23.20;100453.73;108037;1287;21992;-59
2023/05/18 10:15:58;;;;;;;15.40;6.60;;;;;;;39.85;23.26;100452.00;107937;1287;22454;-60
2023/05/18 10:18:34;;;;;;;14.40;5.90;;;;;;;39.92;23.01;100451.45;108063;1284;22000;-60
2023/05/18 10:21:01;;;;;;;7.20;6.00;;;;;;;39.92;22.90;100454.50;108042;1287;21992;-62
2023/05/18 10:23:32;;;;;;;12.60;6.70;;;;;;;39.95;22.72;100450.44;108181;1287;21998;-60
2023/05/18 10:25:57;;;;;;;8.80;5.30;;;;;;;39.95;22.95;100445.52;107887;1287;22377;-61
2023/05/18 10:28:29;;;;;;;15.70;6.30;;;;;;;39.97;22.79;100443.05;108033;1283;21994;-60
2023/05/18 10:30:57;;;;;;;7.60;5.60;;;;;;;39.95;22.82;100447.69;108042;1287;21987;-60
2023/05/18 10:33:24;;;;;;;13.60;6.40;;;;;;;39.90;22.62;100448.37;108010;1278;21988;-60
2023/05/18 10:35:50;;;;;;;11.50;5.90;;;;;;;39.83;22.59;100447.02;108077;1287;21998;-60
2023/05/18 10:38:18;;;;;;;9.50;6.10;;;;;;;39.69;22.29;100448.66;108070;1287;23026;-61
2023/05/18 10:40:44;;;;;;;16.80;6.40;;;;;;;39.51;22.24;100442.66;108111;1287;21987;-60
2023/05/18 10:43:09;;;;;;;9.20;5.50;;;;;;;39.36;22.27;100443.34;107795;1287;21995;-60
2023/05/18 10:45:35;;;;;;;7.50;5.80;;;;;;;39.23;22.27;100442.95;107834;1288;22032;-62
2023/05/18 10:48:01;;;;;;;8.30;5.80;;;;;;;39.13;22.13;100443.08;107921;1287;22005;-61
2023/05/18 10:50:26;;;;;;;16.30;6.50;;;;;;;38.98;22.02;100439.13;108126;1287;22637;-60
2023/05/18 10:52:52;;;;;;;9.00;6.10;;;;;;;38.83;22.16;100441.85;108212;1286;21977;-61
2023/05/18 10:55:18;;;;;;;7.80;6.30;;;;;;;38.74;22.00;100436.80;108120;1287;21992;-60
2023/05/18 10:57:51;;;;;;;8.50;6.10;;;;;;;38.63;21.91;100434.12;107884;1288;22101;-61
2023/05/18 11:00:17;;;;;;;11.90;6.20;;;;;;;38.53;21.95;100432.83;108140;1287;21992;-60
2023/05/18 11:02:43;;;;;;;8.50;5.80;;;;;;;38.49;22.00;100433.87;107931;1288;22011;-61
2023/05/18 11:05:09;;;;;;;14.70;6.50;;;;;;;38.38;22.07;100435.81;108204;1287;22450;-60
2023/05/18 11:07:35;;;;;;;13.10;6.70;;;;;;;38.23;22.11;100437.35;108175;1287;21988;-60
2023/05/18 11:10:02;;;;;;;15.70;6.40;;;;;;;38.03;21.90;100433.70;108133;1287;22005;-60
2023/05/18 11:12:28;;;;;;;14.40;6.10;;;;;;;37.78;21.84;100430.46;108148;1287;21999;-61
2023/05/18 11:14:56;;;;;;;7.90;6.00;;;;;;;37.63;22.15;100432.38;107859;1288;22000;-60
2023/05/18 11:17:24;;;;;;;8.00;6.30;;;;;;;37.68;22.10;100426.90;108109;1288;22025;-60